Time;durP1;ratioP1;P1;durP2;ratioP2;P2;SDS_P1;SDS_P2;PMS_P1;PMS_P2;Temp;Humidity;BMP_temperature;BMP_pressure;BME280_temperature;BME280_humidity;BME280_pressure;Samples;Min_cycle;Max_cycle;Signal;HPM_P1;HPM_P2
2022/06/30 00:02:10;;;;;;;1.88;0.70;;;16.20;68.00;;;;;;4988250;28;20030;-82
2022/06/30 00:04:36;;;;;;;1.92;0.93;;;16.10;67.80;;;;;;4995603;28;20026;-82
2022/06/30 00:07:02;;;;;;;3.40;1.10;;;16.10;68.10;;;;;;4993187;28;20511;-82
2022/06/30 00:09:27;;;;;;;1.67;0.70;;;16.00;68.40;;;;;;5010687;28;20731;-82
2022/06/30 00:11:53;;;;;;;1.60;1.02;;;15.90;68.90;;;;;;4994346;28;20478;-82
2022/06/30 00:14:19;;;;;;;3.00;0.80;;;15.90;69.30;;;;;;4995598;28;20085;-82
2022/06/30 00:16:44;;;;;;;1.98;1.10;;;15.80;69.50;;;;;;4995425;28;20089;-82
2022/06/30 00:19:10;;;;;;;3.95;0.90;;;15.80;69.90;;;;;;4993084;28;20530;-82
2022/06/30 00:21:36;;;;;;;3.63;1.10;;;15.80;69.70;;;;;;4976042;28;20062;-82
2022/06/30 00:24:02;;;;;;;3.30;1.10;;;15.90;69.90;;;;;;4975842;28;20019;-82
2022/06/30 00:26:28;;;;;;;2.30;0.70;;;15.90;69.30;;;;;;5002992;28;20031;-82
2022/06/30 00:28:53;;;;;;;2.55;0.90;;;15.90;69.30;;;;;;5030510;28;20448;-82
2022/06/30 00:31:19;;;;;;;2.08;0.75;;;15.80;69.70;;;;;;5018909;28;20026;-82
2022/06/30 00:33:47;;;;;;;2.72;1.05;;;15.80;69.80;;;;;;4987163;28;20486;-82
2022/06/30 00:36:12;;;;;;;2.13;0.70;;;15.60;70.40;;;;;;4979487;28;20118;-82
2022/06/30 00:38:38;;;;;;;1.67;0.90;;;15.50;71.20;;;;;;4979625;28;20069;-82
2022/06/30 00:41:04;;;;;;;2.78;0.93;;;15.60;70.90;;;;;;4987758;28;20070;-82
2022/06/30 00:43:30;;;;;;;3.63;1.27;;;15.50;71.60;;;;;;4979305;28;20027;-82
2022/06/30 00:45:55;;;;;;;2.08;0.80;;;15.60;70.80;;;;;;4982300;28;20037;-82
2022/06/30 00:48:21;;;;;;;3.55;0.93;;;15.50;71.40;;;;;;4999089;28;20069;-82
2022/06/30 00:50:47;;;;;;;2.63;0.95;;;15.70;71.20;;;;;;4998967;28;20037;-82
2022/06/30 00:53:13;;;;;;;1.20;0.80;;;15.80;69.90;;;;;;4998811;28;20539;-82
2022/06/30 00:55:39;;;;;;;2.33;0.95;;;15.90;69.90;;;;;;4996731;28;20034;-82
2022/06/30 00:58:07;;;;;;;2.35;0.93;;;16.00;69.40;;;;;;4998371;28;20053;-82
2022/06/30 01:00:39;;;;;;;1.27;0.77;;;16.00;69.30;;;;;;4991885;28;20030;-82
2022/06/30 01:03:06;;;;;;;6.53;0.95;;;15.90;69.80;;;;;;4978898;28;20027;-82
2022/06/30 01:05:32;;;;;;;4.80;1.38;;;15.90;69.90;;;;;;4978000;28;20504;-82
2022/06/30 01:07:58;;;;;;;4.30;1.00;;;15.90;70.50;;;;;;4990923;28;20037;-82
2022/06/30 01:13:08;;;;;;;2.92;0.98;;;15.90;70.30;;;;;;4979132;28;20030;-82
2022/06/30 01:15:34;;;;;;;5.32;0.90;;;15.90;70.50;;;;;;4979004;28;20034;-82
2022/06/30 01:17:59;;;;;;;4.20;0.75;;;15.90;70.40;;;;;;4978910;28;20034;-82
2022/06/30 01:20:28;;;;;;;1.85;1.05;;;15.90;70.30;;;;;;4978940;28;20386;-82
2022/06/30 01:22:55;;;;;;;3.92;0.93;;;15.90;70.40;;;;;;4995239;28;20031;-82
2022/06/30 01:25:21;;;;;;;1.55;0.70;;;15.90;70.40;;;;;;5001583;28;20026;-82
2022/06/30 01:27:46;;;;;;;4.30;1.20;;;15.80;70.80;;;;;;5017457;28;20034;-82
2022/06/30 01:30:12;;;;;;;7.32;0.93;;;15.80;70.90;;;;;;5010351;28;20066;-82
2022/06/30 01:32:38;;;;;;;3.30;1.05;;;15.80;71.20;;;;;;4978658;28;20022;-82
2022/06/30 01:35:04;;;;;;;2.70;1.00;;;15.70;70.80;;;;;;4978615;28;20405;-82
2022/06/30 01:37:52;;;;;;;2.05;0.80;;;15.80;71.10;;;;;;4978471;28;20063;-82
2022/06/30 01:40:19;;;;;;;3.78;1.05;;;15.70;71.50;;;;;;4978576;28;20122;-82
2022/06/30 01:42:45;;;;;;;4.90;1.10;;;15.70;70.70;;;;;;4978300;28;20232;-82
2022/06/30 01:45:11;;;;;;;2.80;1.00;;;15.60;71.60;;;;;;4978632;28;20066;-82
2022/06/30 01:47:37;;;;;;;4.72;1.10;;;15.60;70.60;;;;;;4978323;28;20359;-82
2022/06/30 01:50:15;;;;;;;2.97;1.00;;;15.60;71.30;;;;;;4978360;28;20110;-82
2022/06/30 01:52:41;;;;;;;1.02;0.82;;;15.50;71.70;;;;;;4978446;28;20089;-82
2022/06/30 01:55:07;;;;;;;1.48;0.93;;;15.60;71.50;;;;;;4978268;28;20035;-82
2022/06/30 01:57:33;;;;;;;2.83;0.98;;;15.60;71.50;;;;;;4990133;28;20035;-82
2022/06/30 01:59:59;;;;;;;3.30;1.10;;;15.60;71.40;;;;;;4981950;28;20031;-82
2022/06/30 02:02:25;;;;;;;2.95;1.05;;;15.50;70.40;;;;;;4978105;28;20031;-82
2022/06/30 02:04:53;;;;;;;2.50;1.00;;;15.50;70.60;;;;;;4977088;28;20042;-83
2022/06/30 02:07:19;;;;;;;4.45;1.30;;;15.50;71.40;;;;;;4985835;28;20077;-83
2022/06/30 02:09:45;;;;;;;1.58;0.90;;;15.50;71.30;;;;;;5004180;28;20042;-82
2022/06/30 02:14:57;;;;;;;2.97;1.00;;;15.50;71.30;;;;;;4977959;28;20050;-82
2022/06/30 02:17:23;;;;;;;5.68;1.25;;;15.50;70.90;;;;;;4977612;28;20030;-82
2022/06/30 02:19:49;;;;;;;4.85;1.25;;;15.30;71.60;;;;;;4976625;28;20098;-82
2022/06/30 02:22:16;;;;;;;2.47;1.08;;;15.30;72.30;;;;;;4977661;28;20045;-82
2022/06/30 02:24:41;;;;;;;3.28;1.08;;;15.20;72.20;;;;;;4977581;28;20033;-82
2022/06/30 02:27:07;;;;;;;3.15;1.27;;;15.10;72.30;;;;;;5015020;28;20107;-82
2022/06/30 02:29:33;;;;;;;3.95;1.30;;;15.10;72.10;;;;;;4997632;28;20456;-82
2022/06/30 02:31:58;;;;;;;4.93;1.15;;;15.20;71.80;;;;;;4997386;28;20061;-82
2022/06/30 02:34:24;;;;;;;3.80;1.45;;;15.10;71.50;;;;;;4995202;28;20062;-82
2022/06/30 02:36:50;;;;;;;5.68;1.90;;;15.10;71.90;;;;;;4984741;28;20058;-83
2022/06/30 02:39:16;;;;;;;2.13;0.90;;;15.00;72.00;;;;;;4977502;28;20031;-82
2022/06/30 02:41:42;;;;;;;2.83;1.25;;;15.00;72.30;;;;;;4977343;28;20479;-82
2022/06/30 02:44:07;;;;;;;3.03;1.10;;;15.00;72.30;;;;;;4977286;28;20075;-82
2022/06/30 02:46:33;;;;;;;5.22;1.27;;;15.00;72.40;;;;;;4977144;28;20026;-83
2022/06/30 02:48:59;;;;;;;2.20;1.13;;;14.90;72.30;;;;;;4977483;28;20034;-82
2022/06/30 02:51:24;;;;;;;2.20;0.93;;;14.90;72.30;;;;;;4976942;28;20046;-83
2022/06/30 02:53:50;;;;;;;4.57;1.48;;;14.80;72.80;;;;;;4976755;28;20031;-82
2022/06/30 02:56:16;;;;;;;4.18;1.20;;;14.80;72.70;;;;;;4979221;28;20410;-82
2022/06/30 02:58:42;;;;;;;2.95;1.02;;;14.80;72.70;;;;;;4989539;28;20112;-82
2022/06/30 03:01:08;;;;;;;2.83;1.10;;;14.80;72.30;;;;;;4995245;28;20085;-82
2022/06/30 03:03:34;;;;;;;4.88;1.20;;;14.80;72.30;;;;;;4995014;28;20030;-82
2022/06/30 03:06:00;;;;;;;2.42;1.10;;;14.80;71.80;;;;;;4995370;28;20030;-83
2022/06/30 03:08:25;;;;;;;4.72;1.08;;;14.80;72.00;;;;;;4996465;28;20034;-83
2022/06/30 03:10:51;;;;;;;4.25;1.20;;;14.80;72.20;;;;;;4996481;28;20061;-82
2022/06/30 03:13:17;;;;;;;4.38;1.05;;;14.70;72.80;;;;;;4995894;28;20117;-82
2022/06/30 03:15:42;;;;;;;2.50;1.00;;;14.70;72.30;;;;;;4992360;28;20034;-83
2022/06/30 03:18:08;;;;;;;3.92;1.25;;;14.70;72.30;;;;;;4996340;28;20109;-82
2022/06/30 03:20:33;;;;;;;3.20;0.98;;;14.70;72.70;;;;;;4996209;28;20030;-82
2022/06/30 03:22:59;;;;;;;4.15;1.58;;;14.70;72.80;;;;;;4995919;28;20053;-82
2022/06/30 03:25:25;;;;;;;2.50;1.25;;;14.70;72.70;;;;;;4999854;28;20538;-82
2022/06/30 03:27:50;;;;;;;3.53;0.98;;;14.70;72.80;;;;;;4991985;28;20034;-82
2022/06/30 03:30:16;;;;;;;4.28;1.10;;;14.70;72.90;;;;;;4976483;28;20425;-83
2022/06/30 03:32:42;;;;;;;2.15;1.20;;;14.80;72.80;;;;;;4976549;28;20034;-82
2022/06/30 03:35:09;;;;;;;4.25;1.48;;;14.80;72.80;;;;;;4976463;28;20027;-83
2022/06/30 03:37:35;;;;;;;4.43;1.30;;;14.80;72.70;;;;;;4976616;28;20030;-82
2022/06/30 03:40:01;;;;;;;5.05;1.33;;;14.80;72.80;;;;;;4976527;28;20049;-83
2022/06/30 03:42:27;;;;;;;5.00;1.08;;;14.70;72.90;;;;;;4976464;28;20022;-82
2022/06/30 03:44:52;;;;;;;2.70;1.55;;;14.70;73.00;;;;;;4994021;28;20046;-82
2022/06/30 03:47:18;;;;;;;2.90;1.48;;;14.70;72.70;;;;;;4995757;28;20054;-82
2022/06/30 03:49:43;;;;;;;3.25;1.25;;;14.60;73.10;;;;;;4993721;28;20027;-83
2022/06/30 03:52:09;;;;;;;4.72;1.15;;;14.60;73.10;;;;;;4978130;28;20070;-82
2022/06/30 03:54:35;;;;;;;6.22;1.50;;;14.60;73.70;;;;;;4995678;28;20034;-83
2022/06/30 03:57:00;;;;;;;5.43;1.33;;;14.60;73.70;;;;;;4995510;28;20299;-83
2022/06/30 03:59:26;;;;;;;2.45;1.48;;;14.60;73.30;;;;;;4981691;28;20019;-82
2022/06/30 04:01:52;;;;;;;2.33;1.20;;;14.60;73.50;;;;;;4976356;28;20027;-83
2022/06/30 04:04:17;;;;;;;3.03;1.23;;;14.60;73.50;;;;;;4977445;28;20077;-83
2022/06/30 04:06:43;;;;;;;4.35;1.30;;;14.50;73.50;;;;;;4980027;28;20413;-83
2022/06/30 04:09:09;;;;;;;2.47;1.50;;;14.50;74.40;;;;;;4980333;28;20042;-83
2022/06/30 04:11:34;;;;;;;6.68;1.50;;;14.40;74.50;;;;;;4980491;28;20401;-82
2022/06/30 04:14:00;;;;;;;2.25;1.33;;;14.40;74.30;;;;;;4979921;28;20054;-82
2022/06/30 04:16:26;;;;;;;3.83;1.40;;;14.40;74.50;;;;;;4980135;28;20038;-82
2022/06/30 04:18:54;;;;;;;4.93;1.48;;;14.50;74.10;;;;;;4980150;28;20441;-82
2022/06/30 04:21:19;;;;;;;2.00;1.20;;;14.50;73.70;;;;;;4979905;28;20502;-83
2022/06/30 04:23:45;;;;;;;3.15;1.05;;;14.50;73.80;;;;;;4979965;28;20104;-83
2022/06/30 04:26:11;;;;;;;3.33;1.00;;;14.50;73.80;;;;;;5002467;28;20029;-83
2022/06/30 04:28:37;;;;;;;2.58;1.17;;;14.50;73.50;;;;;;5033627;28;20037;-83
2022/06/30 04:33:47;;;;;;;3.63;1.42;;;14.50;72.70;;;;;;4999391;28;20041;-83
2022/06/30 04:36:13;;;;;;;2.38;1.15;;;14.50;72.50;;;;;;4997695;28;20031;-83
2022/06/30 04:38:38;;;;;;;3.63;1.15;;;14.50;72.90;;;;;;4998007;28;20026;-83
2022/06/30 04:43:48;;;;;;;4.07;1.40;;;14.40;73.40;;;;;;4998912;28;20024;-84
2022/06/30 04:46:14;;;;;;;3.22;0.88;;;14.40;73.90;;;;;;4997617;28;20034;-81
2022/06/30 04:48:40;;;;;;;1.55;1.00;;;14.30;73.70;;;;;;4997443;28;20019;-85
2022/06/30 04:51:06;;;;;;;3.50;1.20;;;14.40;73.60;;;;;;4999420;28;20030;-88
2022/06/30 04:53:31;;;;;;;4.93;1.30;;;14.30;74.30;;;;;;4997433;28;20035;-85
2022/06/30 04:55:57;;;;;;;3.42;1.27;;;14.30;74.30;;;;;;4998206;28;20041;-86
2022/06/30 04:58:22;;;;;;;2.47;1.23;;;14.30;74.80;;;;;;4995616;28;20055;-86
2022/06/30 05:00:48;;;;;;;3.72;1.70;;;14.40;74.70;;;;;;4978221;28;20034;-84
2022/06/30 05:03:14;;;;;;;3.97;1.50;;;14.50;74.40;;;;;;4979348;28;20026;-83
2022/06/30 05:05:40;;;;;;;2.35;1.20;;;14.50;73.90;;;;;;5001640;28;20039;-88
2022/06/30 05:08:06;;;;;;;2.88;1.45;;;14.60;73.50;;;;;;4983557;28;20061;-86
2022/06/30 05:10:31;;;;;;;4.57;1.50;;;14.60;73.90;;;;;;4976562;28;20465;-85
2022/06/30 05:12:57;;;;;;;2.50;1.25;;;14.60;74.30;;;;;;4977532;28;20109;-83
2022/06/30 05:15:23;;;;;;;2.38;1.35;;;14.60;74.30;;;;;;4992926;28;20027;-88
2022/06/30 05:17:49;;;;;;;3.15;1.77;;;14.50;74.30;;;;;;4977865;28;20323;-88
2022/06/30 05:20:14;;;;;;;3.85;1.30;;;14.60;74.80;;;;;;4978567;28;20106;-90
2022/06/30 05:22:40;;;;;;;4.65;1.40;;;14.70;74.50;;;;;;4978437;28;20085;-91
2022/06/30 05:27:53;;;;;;;2.33;1.10;;;14.80;74.10;;;;;;5017543;28;20040;-91
2022/06/30 05:30:19;;;;;;;5.05;1.33;;;14.80;74.10;;;;;;5011154;28;20026;-86
2022/06/30 05:32:46;;;;;;;5.00;1.50;;;14.90;74.20;;;;;;4985770;28;20041;-87
2022/06/30 05:35:12;;;;;;;5.18;1.45;;;15.00;74.20;;;;;;4977006;28;20029;-87
2022/06/30 05:37:38;;;;;;;6.28;1.40;;;15.10;73.90;;;;;;4978597;28;20106;-86
2022/06/30 05:40:05;;;;;;;2.38;1.23;;;15.20;73.90;;;;;;4983392;28;20034;-86
2022/06/30 05:42:30;;;;;;;3.95;1.45;;;15.30;73.60;;;;;;4991434;28;20476;-85
2022/06/30 05:44:56;;;;;;;5.00;1.50;;;15.30;73.40;;;;;;4980417;28;20034;-88
2022/06/30 05:47:22;;;;;;;5.07;1.63;;;15.20;73.70;;;;;;4978222;28;20038;-88
2022/06/30 05:49:47;;;;;;;2.95;1.67;;;15.20;73.50;;;;;;4983616;28;20014;-88
2022/06/30 05:52:13;;;;;;;3.30;1.50;;;15.20;73.70;;;;;;4997500;28;20030;-90
2022/06/30 05:54:39;;;;;;;3.10;1.45;;;15.20;73.70;;;;;;5013308;28;20030;-91
2022/06/30 05:57:05;;;;;;;6.15;1.60;;;15.40;73.10;;;;;;4970184;28;1259219;-90
2022/06/30 05:59:32;;;;;;;2.72;1.17;;;15.50;72.50;;;;;;4999311;28;20085;-91
2022/06/30 06:01:59;;;;;;;8.20;1.60;;;15.50;72.60;;;;;;5013201;28;20042;-90
2022/06/30 06:04:25;;;;;;;6.88;1.40;;;15.60;72.30;;;;;;4978498;28;20085;-91
2022/06/30 06:06:50;;;;;;;3.45;1.20;;;15.60;72.60;;;;;;4978355;28;20022;-91
2022/06/30 06:09:16;;;;;;;2.92;1.10;;;15.80;72.00;;;;;;4978946;28;20037;-90
2022/06/30 06:11:42;;;;;;;6.93;1.60;;;15.90;71.90;;;;;;4984983;28;20022;-90
2022/06/30 06:14:08;;;;;;;2.80;1.50;;;16.00;71.50;;;;;;5014478;28;20030;-90
2022/06/30 06:16:34;;;;;;;5.30;1.50;;;16.00;71.40;;;;;;5013544;28;20125;-90
2022/06/30 06:19:00;;;;;;;3.63;1.40;;;16.00;71.60;;;;;;4978820;28;20065;-90
2022/06/30 06:21:28;;;;;;;5.30;1.90;;;16.00;71.30;;;;;;4978244;28;20034;-90
2022/06/30 06:23:54;;;;;;;3.03;1.50;;;16.00;71.70;;;;;;4978432;28;20023;-92
2022/06/30 06:26:20;;;;;;;3.00;1.40;;;15.90;72.20;;;;;;4978997;28;20038;-92
2022/06/30 06:31:35;;;;;;;3.95;1.58;;;15.80;73.20;;;;;;4999313;28;20535;-92
2022/06/30 06:34:02;;;;;;;2.53;1.20;;;15.80;72.80;;;;;;4997563;28;20052;-91
2022/06/30 06:36:28;;;;;;;7.05;1.65;;;15.80;73.30;;;;;;4983609;28;20030;-91
2022/06/30 06:38:54;;;;;;;6.00;1.48;;;15.80;73.20;;;;;;4983684;28;20092;-91
2022/06/30 06:41:23;;;;;;;3.10;1.73;;;15.90;73.30;;;;;;4997864;28;20030;-91
2022/06/30 06:43:52;;;;;;;8.02;1.80;;;15.80;73.90;;;;;;4997359;28;20077;-90
2022/06/30 06:46:18;;;;;;;3.88;1.40;;;16.00;73.30;;;;;;5007830;28;20038;-91
2022/06/30 06:48:44;;;;;;;9.05;2.00;;;16.10;72.90;;;;;;5013993;28;20106;-90
2022/06/30 06:51:10;;;;;;;3.03;1.30;;;16.20;72.50;;;;;;5012565;28;20481;-90
2022/06/30 06:53:37;;;;;;;2.60;1.33;;;16.40;72.40;;;;;;4994099;28;20053;-91
2022/06/30 06:56:03;;;;;;;5.97;1.50;;;16.50;72.00;;;;;;4994393;28;20035;-90
2022/06/30 06:58:29;;;;;;;4.72;1.40;;;16.50;71.40;;;;;;4999718;28;20047;-90
2022/06/30 07:00:55;;;;;;;3.00;1.92;;;16.50;71.80;;;;;;4977545;28;20064;-92
2022/06/30 07:03:21;;;;;;;6.05;1.50;;;16.50;71.80;;;;;;4978113;28;20030;-89
2022/06/30 07:05:47;;;;;;;3.00;1.42;;;16.40;71.90;;;;;;4977240;28;20035;-90
2022/06/30 07:08:12;;;;;;;2.95;1.20;;;16.40;71.70;;;;;;4977714;28;20046;-91
2022/06/30 07:10:38;;;;;;;5.03;1.50;;;16.30;72.30;;;;;;4986443;28;20038;-90
2022/06/30 07:13:04;;;;;;;6.68;1.67;;;16.30;72.40;;;;;;4996749;28;20093;-91
2022/06/30 07:15:30;;;;;;;5.65;1.65;;;16.30;72.10;;;;;;4997119;28;20030;-91
2022/06/30 07:17:55;;;;;;;4.15;1.15;;;16.30;72.10;;;;;;4995761;28;20053;-91
2022/06/30 07:20:21;;;;;;;7.03;1.33;;;16.30;72.10;;;;;;4977367;28;20037;-91
2022/06/30 07:22:47;;;;;;;4.53;1.33;;;16.30;72.50;;;;;;4977326;28;20054;-91
2022/06/30 07:25:13;;;;;;;4.18;1.40;;;16.20;72.80;;;;;;4993105;28;20044;-91
2022/06/30 07:27:39;;;;;;;5.78;1.67;;;16.20;72.40;;;;;;4996718;28;20026;-89
2022/06/30 07:30:05;;;;;;;6.70;1.60;;;16.20;73.00;;;;;;4996712;28;20026;-91
2022/06/30 07:32:30;;;;;;;5.60;1.38;;;16.30;73.20;;;;;;4996691;28;20042;-91
2022/06/30 07:34:56;;;;;;;6.05;1.50;;;16.40;72.60;;;;;;4996846;28;20026;-90
2022/06/30 07:37:22;;;;;;;5.55;1.52;;;16.60;72.10;;;;;;4996406;28;20180;-91
2022/06/30 07:39:47;;;;;;;3.10;1.27;;;16.80;71.30;;;;;;4996851;28;20030;-90
2022/06/30 07:42:13;;;;;;;4.20;1.38;;;16.90;70.80;;;;;;4977466;28;20035;-91
2022/06/30 07:44:39;;;;;;;4.57;1.45;;;16.90;71.10;;;;;;4976980;28;20503;-91
2022/06/30 07:47:05;;;;;;;8.68;1.42;;;16.90;70.40;;;;;;4976898;28;20035;-91
2022/06/30 07:49:30;;;;;;;6.68;1.77;;;17.00;70.00;;;;;;4978200;28;20039;-91
2022/06/30 07:51:56;;;;;;;2.85;1.15;;;17.00;70.30;;;;;;4977201;28;20030;-90
2022/06/30 07:54:22;;;;;;;5.68;1.63;;;17.20;69.70;;;;;;4977043;28;20027;-91
2022/06/30 07:56:47;;;;;;;5.18;1.08;;;17.30;69.50;;;;;;4995220;28;20113;-91
2022/06/30 07:59:13;;;;;;;3.20;0.98;;;17.30;68.80;;;;;;5012895;28;20038;-91
2022/06/30 08:01:39;;;;;;;6.25;1.48;;;17.40;68.30;;;;;;5001973;28;20126;-91
2022/06/30 08:04:05;;;;;;;5.00;1.50;;;17.60;68.50;;;;;;4976870;28;20028;-91
2022/06/30 08:06:30;;;;;;;3.20;1.00;;;17.60;67.50;;;;;;4976319;28;20027;-90
2022/06/30 08:08:56;;;;;;;5.35;1.38;;;18.00;67.50;;;;;;4976676;28;20023;-92
2022/06/30 08:11:23;;;;;;;3.10;0.98;;;18.30;66.10;;;;;;4983542;28;21026;-90
2022/06/30 08:13:49;;;;;;;4.20;1.13;;;18.50;65.40;;;;;;5012167;28;20441;-90
2022/06/30 08:16:15;;;;;;;9.70;1.35;;;18.50;64.90;;;;;;5012032;28;20054;-90
2022/06/30 08:18:41;;;;;;;6.05;1.20;;;18.50;64.00;;;;;;5012017;28;20034;-90
2022/06/30 08:21:09;;;;;;;5.78;1.30;;;18.60;63.70;;;;;;5011763;28;20042;-90
2022/06/30 08:23:36;;;;;;;6.22;1.15;;;18.80;63.10;;;;;;5012501;28;20030;-91
2022/06/30 08:26:02;;;;;;;6.70;1.30;;;19.20;62.20;;;;;;5011325;28;20062;-92
2022/06/30 08:28:28;;;;;;;8.02;1.30;;;19.50;61.80;;;;;;4995669;28;20030;-90
2022/06/30 08:30:54;;;;;;;2.03;0.80;;;20.10;60.10;;;;;;4997440;28;20680;-92
2022/06/30 08:33:20;;;;;;;4.03;0.80;;;20.80;58.00;;;;;;4995826;28;20062;-90
2022/06/30 08:35:45;;;;;;;2.65;0.93;;;21.00;54.80;;;;;;4989945;28;20105;-91
2022/06/30 08:38:11;;;;;;;6.95;0.82;;;21.80;53.30;;;;;;4976198;28;20090;-92
2022/06/30 08:43:27;;;;;;;3.28;0.82;;;21.60;52.20;;;;;;4992913;28;20026;-90
2022/06/30 08:45:55;;;;;;;3.72;0.60;;;20.90;52.40;;;;;;4996350;28;20672;-91
2022/06/30 08:48:21;;;;;;;6.00;1.13;;;20.50;53.20;;;;;;4995779;28;20121;-91
2022/06/30 08:50:54;;;;;;;9.05;1.23;;;20.30;53.50;;;;;;4997492;28;20050;-92
2022/06/30 08:53:23;;;;;;;5.80;1.10;;;20.30;53.40;;;;;;4997991;28;20046;-91
2022/06/30 08:55:50;;;;;;;4.40;0.75;;;20.00;53.80;;;;;;4999953;28;20026;-91
2022/06/30 08:58:19;;;;;;;4.07;0.85;;;19.90;54.40;;;;;;4996928;28;20580;-91
2022/06/30 09:00:45;;;;;;;4.32;1.02;;;19.90;56.10;;;;;;4979565;28;20030;-91
2022/06/30 09:03:11;;;;;;;3.30;0.77;;;20.10;56.90;;;;;;4996997;28;20500;-91
2022/06/30 09:05:37;;;;;;;4.50;1.02;;;20.30;58.10;;;;;;5015356;28;20049;-92
2022/06/30 09:08:03;;;;;;;6.93;0.80;;;22.10;54.60;;;;;;5013871;28;20018;-91
2022/06/30 09:10:29;;;;;;;2.65;0.50;;;22.70;53.10;;;;;;4998763;28;20030;-91
2022/06/30 09:12:58;;;;;;;5.43;0.70;;;22.40;51.60;;;;;;4998489;28;20030;-91
2022/06/30 09:15:24;;;;;;;5.45;0.75;;;21.80;51.20;;;;;;4988657;28;20047;-91
2022/06/30 09:17:50;;;;;;;2.45;0.65;;;21.30;51.40;;;;;;4979325;28;20030;-91
2022/06/30 09:20:16;;;;;;;4.75;0.85;;;22.00;50.20;;;;;;4978759;28;20030;-90
2022/06/30 09:22:42;;;;;;;3.83;0.70;;;22.00;51.30;;;;;;4983282;28;20037;-90
2022/06/30 09:25:09;;;;;;;3.20;0.98;;;22.30;49.40;;;;;;4997923;28;20029;-91
2022/06/30 09:27:40;;;;;;;1.95;0.40;;;23.40;47.20;;;;;;5033580;28;20026;-90
2022/06/30 09:30:10;;;;;;;2.00;0.80;;;23.60;45.50;;;;;;4978967;28;20478;-90
2022/06/30 09:32:50;;;;;;;5.03;1.10;;;23.80;44.80;;;;;;4979048;28;20019;-89
2022/06/30 09:35:17;;;;;;;3.35;0.57;;;24.00;44.00;;;;;;4979079;28;20027;-90
2022/06/30 09:37:43;;;;;;;3.75;0.70;;;22.90;45.60;;;;;;4980346;28;20031;-91
2022/06/30 09:40:10;;;;;;;3.38;0.85;;;22.50;47.50;;;;;;5014381;28;20105;-92
2022/06/30 09:42:43;;;;;;;4.63;0.80;;;25.00;43.90;;;;;;5011087;28;20031;-91
2022/06/30 09:45:11;;;;;;;5.18;0.80;;;26.00;41.60;;;;;;4978840;28;20030;-92
2022/06/30 09:47:50;;;;;;;4.00;0.95;;;25.60;41.80;;;;;;4978367;28;20556;-91
2022/06/30 09:50:15;;;;;;;2.83;0.43;;;26.60;40.50;;;;;;4991474;28;20031;-90
2022/06/30 09:52:41;;;;;;;2.50;0.68;;;25.90;40.10;;;;;;4997511;28;20081;-91
2022/06/30 09:55:08;;;;;;;3.83;0.68;;;27.00;40.20;;;;;;4998321;28;20082;-90
2022/06/30 09:57:41;;;;;;;3.03;0.85;;;27.70;38.50;;;;;;4995499;28;20038;-89
2022/06/30 10:00:09;;;;;;;2.63;0.50;;;29.30;32.40;;;;;;4981217;28;20030;-91
2022/06/30 10:02:44;;;;;;;2.92;0.80;;;30.30;32.20;;;;;;4993835;28;20023;-90
2022/06/30 10:05:10;;;;;;;2.05;0.50;;;30.00;33.10;;;;;;4980484;28;20449;-90
2022/06/30 10:07:38;;;;;;;1.50;0.50;;;30.90;30.70;;;;;;4982899;28;20026;-90
2022/06/30 10:10:16;;;;;;;3.50;0.52;;;30.60;32.60;;;;;;4996718;28;20026;-91
2022/06/30 10:12:45;;;;;;;3.38;0.32;;;29.90;31.90;;;;;;4993976;28;20089;-81
2022/06/30 10:15:15;;;;;;;2.50;0.40;;;29.50;32.70;;;;;;4986316;28;20030;-81
2022/06/30 10:17:47;;;;;;;1.42;0.30;;;28.60;33.20;;;;;;4987503;28;20078;-82
2022/06/30 10:20:13;;;;;;;2.47;0.60;;;27.80;34.50;;;;;;4988065;28;20072;-81
2022/06/30 10:22:40;;;;;;;2.05;0.30;;;27.00;35.70;;;;;;4982439;28;20114;-81
2022/06/30 10:25:07;;;;;;;2.88;0.70;;;26.70;37.00;;;;;;4988245;28;20044;-81
2022/06/30 10:27:34;;;;;;;1.67;0.50;;;26.90;36.60;;;;;;4985171;28;20489;-81
2022/06/30 10:30:09;;;;;;;3.53;0.50;;;26.90;37.50;;;;;;4986462;28;20042;-82
2022/06/30 10:32:44;;;;;;;1.60;0.60;;;27.70;35.10;;;;;;4985422;28;20018;-82
2022/06/30 10:35:27;;;;;;;2.92;0.60;;;28.30;34.70;;;;;;4985559;28;20041;-82
2022/06/30 10:38:20;;;;;;;3.80;0.73;;;27.90;35.20;;;;;;4989977;28;20106;-82
2022/06/30 10:40:53;;;;;;;6.07;0.80;;;28.30;34.30;;;;;;4987014;28;20703;-81
2022/06/30 10:43:19;;;;;;;2.08;0.47;;;28.30;33.60;;;;;;4987194;28;20038;-83
2022/06/30 10:46:02;;;;;;;1.40;0.40;;;27.90;36.00;;;;;;4991237;28;20117;-83
2022/06/30 10:48:48;;;;;;;2.13;0.60;;;26.80;36.40;;;;;;4989977;28;20060;-87
2022/06/30 10:51:14;;;;;;;3.28;0.63;;;26.30;37.50;;;;;;4988295;28;20515;-85
2022/06/30 10:53:40;;;;;;;1.70;0.50;;;26.00;37.60;;;;;;4991041;28;20057;-84
2022/06/30 10:56:06;;;;;;;1.63;0.30;;;25.60;37.70;;;;;;4992815;28;20022;-88
2022/06/30 10:58:32;;;;;;;2.53;0.38;;;25.30;36.30;;;;;;5009478;28;20533;-88
2022/06/30 11:01:05;;;;;;;2.20;0.47;;;25.10;37.90;;;;;;5021531;28;20129;-83
2022/06/30 11:03:37;;;;;;;1.50;0.50;;;24.50;39.70;;;;;;5010796;28;20037;-89
2022/06/30 11:06:06;;;;;;;1.25;0.40;;;24.40;40.40;;;;;;5007002;28;20045;-88
2022/06/30 11:08:50;;;;;;;5.22;0.38;;;24.20;40.70;;;;;;4982446;28;20031;-88
2022/06/30 11:11:25;;;;;;;2.45;0.40;;;24.30;41.00;;;;;;4986746;28;20050;-88
2022/06/30 11:14:02;;;;;;;4.43;0.43;;;24.30;40.60;;;;;;4986772;28;20090;-88
2022/06/30 11:16:29;;;;;;;2.03;0.40;;;24.30;42.40;;;;;;4990098;28;20054;-88
2022/06/30 11:18:56;;;;;;;1.33;0.40;;;24.40;41.80;;;;;;4995222;28;20034;-89
2022/06/30 11:21:22;;;;;;;1.30;0.47;;;24.20;40.80;;;;;;4986360;28;20038;-88
2022/06/30 11:23:49;;;;;;;2.42;0.50;;;24.10;41.80;;;;;;4988382;28;20033;-90
2022/06/30 11:29:04;;;;;;;2.85;0.43;;;23.80;41.70;;;;;;4986322;28;20040;-86
2022/06/30 11:31:34;;;;;;;0.93;0.32;;;24.00;40.90;;;;;;4982542;28;20060;-89
2022/06/30 11:34:05;;;;;;;1.05;0.50;;;24.00;39.40;;;;;;4981845;28;20029;-91
2022/06/30 11:36:37;;;;;;;2.03;0.32;;;23.90;38.80;;;;;;4984221;28;20050;-90
2022/06/30 11:39:12;;;;;;;0.57;0.40;;;23.80;38.30;;;;;;4979975;28;20597;-89
2022/06/30 11:41:55;;;;;;;3.00;0.63;;;24.00;40.70;;;;;;4982158;28;20549;-91
2022/06/30 11:44:26;;;;;;;2.25;0.30;;;24.10;39.70;;;;;;4985369;28;20037;-90
2022/06/30 11:46:57;;;;;;;1.77;0.43;;;24.30;38.80;;;;;;4983421;28;20030;-89
2022/06/30 11:49:27;;;;;;;1.38;0.35;;;24.50;39.20;;;;;;4987492;28;20022;-91
2022/06/30 11:51:53;;;;;;;2.50;0.40;;;24.60;38.20;;;;;;4978156;28;20114;-92
2022/06/30 11:54:23;;;;;;;1.35;0.40;;;24.30;36.90;;;;;;4985060;28;20049;-83
2022/06/30 11:56:55;;;;;;;2.15;0.40;;;24.00;36.80;;;;;;4987193;28;20083;-90
2022/06/30 11:59:21;;;;;;;1.10;0.30;;;24.10;41.00;;;;;;4980333;28;20031;-90
2022/06/30 12:02:03;;;;;;;1.80;0.30;;;24.20;37.80;;;;;;4977765;28;20023;-91
2022/06/30 12:04:29;;;;;;;3.10;0.73;;;24.20;38.20;;;;;;4977831;28;20031;-89
2022/06/30 12:06:54;;;;;;;1.17;0.30;;;24.20;37.90;;;;;;4984643;28;20050;-88
2022/06/30 12:09:20;;;;;;;0.73;0.30;;;24.10;38.00;;;;;;4980613;28;20086;-89
2022/06/30 12:11:46;;;;;;;0.98;0.20;;;24.00;38.00;;;;;;4981099;28;20014;-89
2022/06/30 12:14:12;;;;;;;2.00;0.30;;;24.10;39.00;;;;;;4981535;28;20022;-91
2022/06/30 12:16:38;;;;;;;1.05;0.30;;;24.20;40.30;;;;;;4978379;28;20587;-90
2022/06/30 12:19:04;;;;;;;1.65;0.22;;;24.10;39.20;;;;;;4990918;28;20023;-91
2022/06/30 12:21:30;;;;;;;1.77;0.22;;;24.10;37.60;;;;;;4986837;28;20117;-89
2022/06/30 12:23:56;;;;;;;2.25;0.30;;;24.10;40.10;;;;;;4980515;28;20026;-91
2022/06/30 12:26:23;;;;;;;1.27;0.30;;;24.10;37.60;;;;;;4984481;28;20516;-85
2022/06/30 12:28:55;;;;;;;2.55;0.30;;;24.10;38.40;;;;;;4993062;28;20024;-91
2022/06/30 12:31:28;;;;;;;0.80;0.30;;;24.00;37.60;;;;;;4986855;28;20031;-92
2022/06/30 12:33:57;;;;;;;0.88;0.20;;;23.80;38.40;;;;;;5008931;28;20022;-91
2022/06/30 12:36:28;;;;;;;0.65;0.30;;;24.00;37.70;;;;;;4992729;28;20089;-91
2022/06/30 12:38:54;;;;;;;1.48;0.40;;;24.10;39.90;;;;;;5004098;28;20093;-88
2022/06/30 12:41:22;;;;;;;0.73;0.30;;;24.30;39.20;;;;;;4985672;28;20045;-91
2022/06/30 12:43:50;;;;;;;3.63;0.47;;;24.30;38.90;;;;;;4982363;28;20077;-91
2022/06/30 12:46:17;;;;;;;1.70;0.30;;;24.30;37.40;;;;;;4986888;28;20030;-89
2022/06/30 12:48:53;;;;;;;0.70;0.30;;;24.20;37.80;;;;;;4993232;28;20520;-92
2022/06/30 12:51:28;;;;;;;1.48;0.32;;;23.80;38.80;;;;;;4993234;28;20026;-91
2022/06/30 12:54:01;;;;;;;1.60;0.35;;;23.60;38.40;;;;;;5006499;28;20117;-92
2022/06/30 12:56:28;;;;;;;1.77;0.35;;;23.30;38.70;;;;;;5006101;28;20799;-91
2022/06/30 12:59:13;;;;;;;1.23;0.40;;;23.10;39.60;;;;;;4998877;28;20033;-90
2022/06/30 13:01:41;;;;;;;2.45;0.50;;;22.80;40.60;;;;;;5011896;28;20493;-90
2022/06/30 13:04:19;;;;;;;2.28;0.43;;;22.70;41.00;;;;;;5001011;28;20500;-91
2022/06/30 13:06:47;;;;;;;2.47;0.57;;;22.50;41.50;;;;;;4986813;28;20398;-89
2022/06/30 13:09:18;;;;;;;1.75;0.30;;;22.30;42.00;;;;;;4982145;28;20034;-90
2022/06/30 13:11:54;;;;;;;1.20;0.43;;;22.10;42.90;;;;;;4995232;28;20030;-91